Pagina principale
METAR-TAF:

METAR-TAF

Aeroporti :

Sion, Svizzera

latitudine: 46-13N, longitudine: 007-20E, altezza: 482 m

Osservazione

Il bollettino è stato emesso 21 minuti fa, alle 07:50 UTC
Vento 2 kt da direzioni variabili
Temperature 22°C
Umidità 50%
Pressione 1021 hPa
Visibilità 10 km o più
Poco nuvoloso ad un'altezza di 7000 ft

METAR: LSGS 270750Z VRB02KT 9999 FEW070 22/11 Q1021

Ora: 10:11 (08:11 UTC)

Previsione

Il bollettino è stato emesso 2 ore e 46 minuti fa, alle 05:25 UTC
Previsione valida dal 27 alle 06 UTC al 27 alle 15 UTC
Vento 3 kt da direzioni variabili
Visibilità 10 km o più
nessuna nube inferiore a 1500 m e nessun cumulonembo
Evoluzione graduale
dal 27 alle 10 UTC al 27 alle 12 UTC
Vento 10 kt da ovest/sud-ovest
Visibilità 10 km o più
Poco nuvoloso ad un'altezza di 9000 ft

TAF: LSGS 270525Z 2706/2715 VRB03KT CAVOK BECMG 2710/2712 25010KT 9999 FEW090

Osservazioni e previsioni meteorologiche di più di 4000 aeroporti (messaggi METAR e TAF).

Le stazioni disponibili sono rappresentate dai dischi gialli e rossi sulla carta.

Puntare il mouse per vedere il nome della stazione.

Clicca sopra per visualizzare le osservazioni e previsioni meteorologiche.

Per cambiare la mappa : fare clic sui pulsanti verdi con una croce nera per ingrandire, il pulsante verde con un trattino per diminuire, o sulla freccia verde per le mappe adiacenti.


METAR-TAF: